Terminal Aerodrome Forecast
Issued by NWS

Home | Current Version | Previous Version | Text Only | Print | Product List | Glossary On
Versions: 1 2 3 4 5 6 7 8 9 10 11 12 13 14 15
000
FTUS41 KPBZ 020520
TAFBVI
TAF
KBVI 020520Z 0206/0306 00000KT P6SM SKC
     FM020900 00000KT 4SM BR SKC
     FM021100 00000KT 2SM BR SKC
     FM021400 25005KT P6SM SCT050
      AMD NOT SKED 0206/0212=

USA.gov is the U.S. government's official web portal to all federal, state and local government web resources and services.